createdAt,value
2023-01-20T00:02:14.161Z,33.50
2023-01-20T00:04:40.787Z,33.71
2023-01-20T00:07:07.285Z,33.45
2023-01-20T00:09:34.167Z,33.67
2023-01-20T00:12:00.677Z,33.56
2023-01-20T00:14:27.770Z,33.42
2023-01-20T00:16:58.331Z,33.52
2023-01-20T00:19:24.894Z,33.58
2023-01-20T00:21:51.399Z,33.43
2023-01-20T00:24:18.049Z,33.53
2023-01-20T00:26:44.680Z,33.40
2023-01-20T00:29:11.565Z,33.60
2023-01-20T00:31:38.580Z,33.48
2023-01-20T00:34:05.403Z,33.38
2023-01-20T00:36:33.105Z,33.45
2023-01-20T00:39:01.716Z,33.62
2023-01-20T00:41:28.293Z,33.47
2023-01-20T00:43:55.142Z,33.44
2023-01-20T00:46:23.184Z,33.40
2023-01-20T00:48:49.979Z,33.34
2023-01-20T00:51:16.559Z,33.60
2023-01-20T00:53:43.277Z,33.31
2023-01-20T00:56:09.873Z,33.57
2023-01-20T00:58:36.485Z,33.12
2023-01-20T01:01:03.219Z,33.30
2023-01-20T01:03:33.601Z,33.50
2023-01-20T01:06:26.301Z,33.36
2023-01-20T01:08:53.097Z,33.36
2023-01-20T01:11:19.640Z,33.34
2023-01-20T01:13:46.241Z,33.04
2023-01-20T01:16:15.241Z,33.05
2023-01-20T01:18:42.748Z,33.02
2023-01-20T01:21:11.555Z,33.00
2023-01-20T01:23:38.197Z,33.06
2023-01-20T01:26:04.943Z,33.26
2023-01-20T01:28:31.780Z,33.19
2023-01-20T01:31:03.187Z,33.25
2023-01-20T01:33:33.185Z,32.84
2023-01-20T01:36:01.657Z,33.24
2023-01-20T01:38:28.473Z,32.75
2023-01-20T01:40:56.044Z,32.99
2023-01-20T01:45:56.728Z,33.01
2023-01-20T01:48:31.525Z,33.02
2023-01-20T01:51:27.110Z,32.83
2023-01-20T01:53:57.719Z,32.91
2023-01-20T01:56:26.890Z,32.80
2023-01-20T01:58:58.427Z,32.93
2023-01-20T02:01:26.387Z,32.69
2023-01-20T02:04:14.317Z,32.92
2023-01-20T02:06:45.118Z,33.14
2023-01-20T02:09:12.363Z,32.92
2023-01-20T02:11:45.364Z,32.71
2023-01-20T02:14:12.151Z,32.92
2023-01-20T02:16:53.570Z,32.78
2023-01-20T02:19:57.892Z,32.57
2023-01-20T02:22:42.869Z,32.71
2023-01-20T02:25:37.015Z,32.77
2023-01-20T02:28:48.507Z,32.48
2023-01-20T02:31:27.091Z,32.80
2023-01-20T02:34:01.038Z,32.56
2023-01-20T02:36:34.044Z,32.78
2023-01-20T02:39:13.535Z,32.80
2023-01-20T02:42:06.399Z,32.67
2023-01-20T02:44:44.866Z,32.69
2023-01-20T02:47:23.618Z,32.69
2023-01-20T02:50:04.274Z,32.74
2023-01-20T02:52:41.206Z,32.39
2023-01-20T02:55:17.921Z,32.67
2023-01-20T02:57:50.469Z,32.62
2023-01-20T03:00:35.895Z,32.63
2023-01-20T03:03:07.530Z,32.28
2023-01-20T03:05:39.944Z,32.29
2023-01-20T03:08:10.568Z,32.49
2023-01-20T03:10:39.192Z,32.34
2023-01-20T03:13:22.266Z,32.64
2023-01-20T03:16:22.280Z,32.55
2023-01-20T03:18:50.659Z,32.34
2023-01-20T03:21:17.375Z,32.31
2023-01-20T03:23:50.577Z,32.33
2023-01-20T03:26:19.746Z,32.55
2023-01-20T03:28:48.499Z,32.52
2023-01-20T03:31:26.881Z,32.57
2023-01-20T03:33:57.741Z,32.25
2023-01-20T03:36:28.188Z,32.53
2023-01-20T03:38:56.785Z,32.11
2023-01-20T03:41:40.245Z,32.25
2023-01-20T03:44:12.616Z,32.43
2023-01-20T03:46:42.941Z,32.62
2023-01-20T03:49:39.265Z,32.63
2023-01-20T03:52:47.440Z,33.23
2023-01-20T03:55:23.094Z,33.39
2023-01-20T03:58:04.653Z,33.34
2023-01-20T04:00:38.103Z,33.10
2023-01-20T04:03:15.230Z,33.16
2023-01-20T04:05:44.466Z,32.87
2023-01-20T04:08:13.610Z,33.15
2023-01-20T04:10:43.228Z,33.02
2023-01-20T04:13:09.924Z,33.14
2023-01-20T04:15:39.978Z,32.80
2023-01-20T04:18:33.757Z,32.84
2023-01-20T04:21:02.394Z,32.71
2023-01-20T04:23:45.159Z,32.44
2023-01-20T04:26:11.736Z,32.85
2023-01-20T04:28:38.327Z,32.70
2023-01-20T04:31:05.273Z,32.75
2023-01-20T04:33:31.930Z,32.86
2023-01-20T04:35:58.520Z,32.45
2023-01-20T04:38:25.060Z,32.77
2023-01-20T04:40:51.795Z,32.59
2023-01-20T04:43:18.509Z,32.39
2023-01-20T04:45:45.202Z,32.49
2023-01-20T04:48:12.152Z,32.68
2023-01-20T04:50:40.826Z,32.54
2023-01-20T04:53:11.477Z,32.74
2023-01-20T04:55:38.193Z,32.40
2023-01-20T04:58:04.781Z,32.79
2023-01-20T05:00:31.405Z,32.80
2023-01-20T05:02:59.013Z,32.59
2023-01-20T05:05:25.815Z,32.91
2023-01-20T05:07:53.422Z,32.94
2023-01-20T05:10:20.377Z,32.61
2023-01-20T05:12:47.263Z,32.96
2023-01-20T05:15:14.179Z,32.97
2023-01-20T05:17:41.114Z,32.86
2023-01-20T05:20:08.885Z,32.78
2023-01-20T05:22:35.513Z,32.65
2023-01-20T05:25:02.142Z,32.98
2023-01-20T05:27:28.821Z,33.06
2023-01-20T05:29:55.532Z,32.98
2023-01-20T05:32:22.098Z,32.84
2023-01-20T05:34:48.857Z,32.75
2023-01-20T05:37:17.955Z,32.84
2023-01-20T05:39:44.563Z,32.95
2023-01-20T05:42:11.112Z,32.80
2023-01-20T05:44:37.767Z,32.80
2023-01-20T05:47:04.608Z,32.87
2023-01-20T05:49:31.311Z,32.74
2023-01-20T05:51:57.930Z,33.00
2023-01-20T05:54:26.090Z,32.94
2023-01-20T05:56:52.810Z,32.93
2023-01-20T05:59:19.468Z,33.02
2023-01-20T06:01:46.005Z,33.09
2023-01-20T06:04:12.630Z,32.85
2023-01-20T06:06:39.384Z,33.01
2023-01-20T06:09:06.664Z,32.99
2023-01-20T06:11:33.364Z,33.28
2023-01-20T06:13:59.999Z,33.15
2023-01-20T06:16:26.567Z,33.23
2023-01-20T06:18:53.292Z,33.19
2023-01-20T06:21:19.841Z,33.16
2023-01-20T06:23:46.580Z,33.16
2023-01-20T06:26:14.393Z,32.93
2023-01-20T06:28:41.222Z,32.95
2023-01-20T06:31:30.748Z,33.04
2023-01-20T06:33:57.516Z,32.99
2023-01-20T06:36:24.274Z,33.15
2023-01-20T06:38:51.071Z,33.29
2023-01-20T06:41:19.544Z,33.23
2023-01-20T06:43:46.552Z,33.14
2023-01-20T06:46:15.247Z,33.21
2023-01-20T06:48:42.993Z,33.22
2023-01-20T06:51:17.830Z,33.19
2023-01-20T06:53:44.583Z,33.03
2023-01-20T06:56:13.040Z,33.32
2023-01-20T06:58:40.326Z,34.21
2023-01-20T07:01:13.270Z,34.29
2023-01-20T07:03:43.497Z,34.78
2023-01-20T07:06:30.410Z,34.95
2023-01-20T07:08:58.977Z,34.83
2023-01-20T07:11:26.357Z,34.77
2023-01-20T07:13:53.387Z,34.97
2023-01-20T07:16:19.987Z,34.93
2023-01-20T07:18:51.263Z,35.05
2023-01-20T07:21:18.544Z,35.23
2023-01-20T07:23:45.632Z,35.29
2023-01-20T07:26:15.505Z,34.99
2023-01-20T07:28:42.431Z,35.30
2023-01-20T07:31:20.405Z,35.63
2023-01-20T07:33:47.753Z,35.72
2023-01-20T07:36:15.422Z,35.37
2023-01-20T07:38:42.705Z,35.36
2023-01-20T07:41:16.580Z,35.21
2023-01-20T07:46:27.389Z,35.04
2023-01-20T07:48:55.540Z,34.71
2023-01-20T07:51:22.185Z,34.44
2023-01-20T07:53:51.643Z,34.72
2023-01-20T07:56:27.593Z,34.27
2023-01-20T07:58:55.186Z,34.52
2023-01-20T08:01:26.001Z,34.01
2023-01-20T08:03:53.098Z,34.33
2023-01-20T08:06:22.258Z,34.06
2023-01-20T08:08:49.384Z,34.08
2023-01-20T08:11:18.157Z,34.18
2023-01-20T08:13:45.500Z,34.02
2023-01-20T08:16:14.967Z,33.81
2023-01-20T08:18:42.337Z,33.56
2023-01-20T08:21:18.226Z,34.06
2023-01-20T08:23:44.830Z,34.10
2023-01-20T08:26:11.348Z,34.52
2023-01-20T08:28:38.091Z,34.91
2023-01-20T08:31:16.121Z,34.99
2023-01-20T08:33:43.980Z,35.46
2023-01-20T08:36:14.149Z,35.78
2023-01-20T08:38:41.252Z,35.65
2023-01-20T08:41:09.586Z,35.64
2023-01-20T08:43:36.614Z,36.14
2023-01-20T08:46:07.351Z,36.30
2023-01-20T08:48:35.245Z,36.56
2023-01-20T08:51:09.810Z,36.41
2023-01-20T08:53:36.705Z,36.42
2023-01-20T08:56:04.131Z,36.59
2023-01-20T08:58:30.930Z,37.00
2023-01-20T09:00:58.411Z,37.04
2023-01-20T09:03:25.489Z,37.25
2023-01-20T09:05:52.648Z,37.19
2023-01-20T09:08:20.376Z,37.04
2023-01-20T09:10:46.985Z,36.28
2023-01-20T09:13:13.584Z,35.51
2023-01-20T09:15:40.253Z,35.25
2023-01-20T09:18:06.944Z,35.01
2023-01-20T09:20:33.493Z,34.74
2023-01-20T09:23:03.201Z,34.66
2023-01-20T09:25:30.075Z,34.63
2023-01-20T09:28:00.428Z,34.31
2023-01-20T09:30:27.488Z,34.34
2023-01-20T09:32:56.296Z,34.01
2023-01-20T09:35:24.042Z,33.97
2023-01-20T09:38:09.226Z,34.01
2023-01-20T09:41:02.634Z,34.20
2023-01-20T09:43:57.797Z,34.07
2023-01-20T09:46:29.180Z,33.81
2023-01-20T09:49:32.898Z,33.89
2023-01-20T09:52:21.350Z,33.67
2023-01-20T09:54:54.653Z,33.88
2023-01-20T09:57:24.956Z,33.95
2023-01-20T10:00:07.644Z,33.56
2023-01-20T10:02:36.396Z,34.01
2023-01-20T10:05:13.438Z,33.45
2023-01-20T10:07:48.217Z,33.85
2023-01-20T10:10:50.766Z,33.58
2023-01-20T10:13:31.488Z,33.91
2023-01-20T10:16:04.842Z,33.84
2023-01-20T10:18:47.652Z,33.41
2023-01-20T10:21:29.533Z,33.35
2023-01-20T10:24:00.289Z,33.76
2023-01-20T10:26:42.375Z,33.87
2023-01-20T10:29:32.341Z,34.12
2023-01-20T10:32:01.367Z,34.67
2023-01-20T10:34:37.220Z,34.94
2023-01-20T10:37:09.932Z,34.91
2023-01-20T10:39:58.394Z,35.42
2023-01-20T10:42:28.350Z,35.59
2023-01-20T10:44:55.390Z,35.50
2023-01-20T10:47:35.458Z,35.68
2023-01-20T10:50:17.227Z,35.98
2023-01-20T10:53:00.403Z,36.28
2023-01-20T10:55:57.904Z,36.33
2023-01-20T10:58:30.081Z,36.65
2023-01-20T11:00:59.918Z,36.56
2023-01-20T11:03:35.631Z,36.67
2023-01-20T11:06:03.205Z,36.68
2023-01-20T11:08:30.392Z,36.45
2023-01-20T11:11:00.762Z,35.45
2023-01-20T11:13:27.430Z,34.97
2023-01-20T11:15:59.551Z,34.73
2023-01-20T11:18:32.076Z,34.35
2023-01-20T11:21:04.958Z,34.35
2023-01-20T11:23:39.943Z,33.99
2023-01-20T11:26:11.970Z,33.92
2023-01-20T11:28:44.570Z,33.86
2023-01-20T11:31:11.551Z,33.85
2023-01-20T11:33:38.164Z,33.89
2023-01-20T11:36:18.837Z,33.58
2023-01-20T11:38:48.149Z,33.17
2023-01-20T11:41:19.435Z,33.31
2023-01-20T11:43:46.113Z,32.93
2023-01-20T11:46:16.321Z,32.94
2023-01-20T11:48:43.017Z,32.84
2023-01-20T11:51:21.188Z,32.43
2023-01-20T11:53:48.360Z,32.53
2023-01-20T11:56:22.284Z,32.25
2023-01-20T11:58:54.554Z,31.96
2023-01-20T12:01:26.036Z,32.24
2023-01-20T12:04:14.730Z,32.60
2023-01-20T12:06:55.833Z,33.00
2023-01-20T12:09:28.761Z,33.39
2023-01-20T12:12:37.545Z,33.42
2023-01-20T12:15:16.821Z,33.67
2023-01-20T12:17:46.311Z,34.15
2023-01-20T12:20:24.759Z,34.31
2023-01-20T12:23:13.161Z,34.71
2023-01-20T12:25:56.849Z,34.92
2023-01-20T12:28:28.287Z,35.19
2023-01-20T12:31:00.521Z,35.60
2023-01-20T12:33:35.282Z,35.64
2023-01-20T12:36:26.772Z,35.96
2023-01-20T12:39:17.934Z,36.30
2023-01-20T12:41:47.404Z,36.57
2023-01-20T12:44:13.834Z,36.26
2023-01-20T12:46:50.675Z,36.80
2023-01-20T12:49:36.541Z,36.38
2023-01-20T12:52:39.119Z,36.02
2023-01-20T12:55:37.332Z,36.08
2023-01-20T12:58:17.742Z,35.58
2023-01-20T13:01:11.187Z,35.62
2023-01-20T13:03:56.254Z,35.26
2023-01-20T13:06:53.772Z,35.26
2023-01-20T13:09:45.150Z,35.19
2023-01-20T13:12:11.639Z,34.90
2023-01-20T13:15:01.979Z,34.72
2023-01-20T13:17:43.794Z,34.99
2023-01-20T13:20:25.114Z,34.84
2023-01-20T13:22:53.474Z,35.31
2023-01-20T13:25:21.670Z,35.33
2023-01-20T13:27:51.175Z,35.12
2023-01-20T13:30:51.568Z,35.26
2023-01-20T13:33:38.292Z,35.53
2023-01-20T13:36:22.825Z,35.43
2023-01-20T13:39:10.416Z,35.73
2023-01-20T13:41:51.965Z,35.71
2023-01-20T13:44:37.774Z,35.65
2023-01-20T13:47:08.596Z,35.58
2023-01-20T13:49:43.901Z,35.59
2023-01-20T13:52:11.892Z,35.56
2023-01-20T13:54:43.111Z,35.85
2023-01-20T13:57:27.868Z,35.94
2023-01-20T13:59:55.904Z,36.11
2023-01-20T14:02:28.804Z,36.36
2023-01-20T14:04:56.264Z,36.55
2023-01-20T14:07:25.602Z,36.54
2023-01-20T14:09:54.074Z,36.77
2023-01-20T14:12:20.920Z,36.60
2023-01-20T14:14:49.370Z,36.84
2023-01-20T14:17:22.064Z,37.16
2023-01-20T14:19:50.805Z,37.36
2023-01-20T14:22:24.916Z,37.35
2023-01-20T14:24:53.734Z,37.31
2023-01-20T14:27:32.003Z,37.42
2023-01-20T14:30:15.917Z,37.69
2023-01-20T14:32:42.767Z,37.68
2023-01-20T14:35:18.554Z,37.18
2023-01-20T14:37:50.308Z,37.43
2023-01-20T14:40:23.391Z,37.65
2023-01-20T14:43:02.422Z,37.95
2023-01-20T14:45:32.292Z,37.78
2023-01-20T14:48:01.293Z,37.19
2023-01-20T14:50:28.808Z,33.60
2023-01-20T14:52:56.163Z,32.65
2023-01-20T14:55:34.131Z,33.59
2023-01-20T14:58:07.075Z,34.16
2023-01-20T15:00:34.638Z,34.30
2023-01-20T15:03:10.999Z,34.62
2023-01-20T15:05:41.803Z,34.85
2023-01-20T15:08:11.412Z,35.02
2023-01-20T15:10:38.946Z,35.19
2023-01-20T15:13:21.871Z,35.31
2023-01-20T15:15:48.547Z,35.14
2023-01-20T15:18:17.406Z,35.44
2023-01-20T15:20:48.931Z,35.27
2023-01-20T15:23:27.503Z,35.52
2023-01-20T15:25:56.469Z,35.07
2023-01-20T15:28:27.441Z,35.14
2023-01-20T15:33:25.744Z,34.75
2023-01-20T15:36:13.678Z,34.42
2023-01-20T15:38:40.330Z,34.31
2023-01-20T15:41:06.841Z,34.25
2023-01-20T15:43:33.380Z,34.22
2023-01-20T15:45:59.983Z,34.13
2023-01-20T15:48:26.662Z,34.04
2023-01-20T15:50:53.196Z,34.26
2023-01-20T15:53:19.841Z,34.25
2023-01-20T15:55:50.903Z,34.14
2023-01-20T15:58:22.486Z,33.77
2023-01-20T16:00:49.364Z,33.82
2023-01-20T16:03:19.165Z,33.85
2023-01-20T16:05:48.263Z,33.73
2023-01-20T16:08:20.523Z,33.32
2023-01-20T16:10:47.595Z,33.48
2023-01-20T16:13:15.098Z,33.43
2023-01-20T16:15:42.961Z,33.37
2023-01-20T16:18:14.867Z,33.28
2023-01-20T16:20:42.740Z,33.24
2023-01-20T16:23:10.015Z,33.00
2023-01-20T16:25:38.471Z,32.96
2023-01-20T16:28:14.555Z,32.69
2023-01-20T16:30:41.704Z,32.34
2023-01-20T16:33:20.400Z,32.38
2023-01-20T16:38:17.898Z,32.38
2023-01-20T16:40:51.371Z,32.89
2023-01-20T16:43:21.819Z,33.74
2023-01-20T16:45:55.232Z,34.04
2023-01-20T16:48:23.479Z,33.89
2023-01-20T16:50:51.421Z,33.81
2023-01-20T16:53:19.887Z,33.78
2023-01-20T16:55:49.034Z,33.33
2023-01-20T16:58:16.942Z,33.63
2023-01-20T17:00:43.554Z,33.42
2023-01-20T17:03:10.290Z,33.31
2023-01-20T17:05:36.938Z,33.15
2023-01-20T17:08:04.189Z,32.99
2023-01-20T17:10:33.853Z,32.84
2023-01-20T17:13:00.822Z,32.64
2023-01-20T17:15:28.029Z,32.44
2023-01-20T17:17:58.612Z,32.16
2023-01-20T17:20:26.865Z,32.34
2023-01-20T17:22:59.496Z,32.78
2023-01-20T17:25:26.357Z,32.78
2023-01-20T17:27:53.124Z,32.30
2023-01-20T17:30:20.413Z,32.46
2023-01-20T17:32:48.258Z,32.67
2023-01-20T17:35:16.026Z,32.75
2023-01-20T17:37:43.307Z,32.60
2023-01-20T17:40:11.708Z,32.44
2023-01-20T17:42:39.258Z,32.72
2023-01-20T17:45:06.523Z,33.04
2023-01-20T17:47:33.165Z,33.41
2023-01-20T17:49:59.819Z,33.40
2023-01-20T17:52:28.001Z,33.14
2023-01-20T17:54:55.687Z,33.52
2023-01-20T17:57:22.193Z,33.18
2023-01-20T17:59:49.000Z,33.04
2023-01-20T18:02:18.443Z,33.45
2023-01-20T18:04:45.141Z,33.11
2023-01-20T18:07:11.738Z,33.19
2023-01-20T18:09:38.327Z,32.90
2023-01-20T18:12:05.220Z,33.13
2023-01-20T18:14:31.904Z,33.23
2023-01-20T18:16:58.450Z,33.04
2023-01-20T18:19:25.225Z,33.21
2023-01-20T18:21:51.906Z,32.83
2023-01-20T18:24:18.679Z,33.09
2023-01-20T18:26:45.269Z,33.04
2023-01-20T18:29:16.793Z,33.14
2023-01-20T18:31:46.307Z,32.98
2023-01-20T18:34:15.678Z,33.03
2023-01-20T18:36:49.223Z,32.95
2023-01-20T18:39:19.799Z,33.26
2023-01-20T18:41:47.616Z,32.86
2023-01-20T18:44:14.282Z,33.19
2023-01-20T18:46:41.103Z,33.22
2023-01-20T18:49:09.694Z,33.17
2023-01-20T18:51:36.995Z,33.13
2023-01-20T18:54:07.408Z,33.02
2023-01-20T18:56:34.535Z,33.28
2023-01-20T18:59:02.393Z,33.39
2023-01-20T19:01:33.621Z,33.96
2023-01-20T19:04:02.192Z,34.36
2023-01-20T19:06:34.385Z,34.74
2023-01-20T19:09:01.360Z,35.42
2023-01-20T19:11:31.816Z,35.61
2023-01-20T19:13:59.307Z,36.11
2023-01-20T19:16:34.273Z,36.28
2023-01-20T19:19:03.008Z,36.17
2023-01-20T19:21:36.577Z,36.71
2023-01-20T19:24:08.278Z,36.84
2023-01-20T19:26:37.429Z,37.02
2023-01-20T19:29:15.555Z,37.35
2023-01-20T19:31:42.653Z,37.57
2023-01-20T19:34:18.452Z,37.96
2023-01-20T19:36:54.911Z,38.08
2023-01-20T19:39:41.961Z,37.96
2023-01-20T19:42:13.651Z,37.77
2023-01-20T19:44:45.938Z,37.46
2023-01-20T19:47:19.860Z,36.94
2023-01-20T19:49:47.090Z,36.45
2023-01-20T19:52:13.872Z,35.66
2023-01-20T19:54:40.720Z,35.34
2023-01-20T19:57:15.538Z,34.75
2023-01-20T19:59:42.445Z,34.57
2023-01-20T20:02:12.195Z,34.08
2023-01-20T20:04:40.252Z,34.09
2023-01-20T20:07:11.563Z,33.86
2023-01-20T20:09:42.648Z,33.51
2023-01-20T20:12:12.644Z,33.70
2023-01-20T20:14:45.436Z,33.51
2023-01-20T20:17:18.016Z,33.43
2023-01-20T20:19:49.403Z,33.19
2023-01-20T20:22:16.008Z,33.12
2023-01-20T20:24:42.676Z,33.33
2023-01-20T20:27:09.634Z,33.39
2023-01-20T20:29:38.501Z,33.10
2023-01-20T20:32:05.479Z,33.32
2023-01-20T20:34:33.471Z,33.29
2023-01-20T20:37:00.355Z,33.36
2023-01-20T20:39:27.490Z,33.02
2023-01-20T20:41:55.625Z,33.08
2023-01-20T20:44:22.486Z,33.03
2023-01-20T20:46:52.168Z,32.98
2023-01-20T20:49:20.467Z,33.19
2023-01-20T20:51:52.305Z,33.25
2023-01-20T20:54:19.534Z,32.90
2023-01-20T20:56:46.473Z,32.98
2023-01-20T20:59:13.657Z,33.06
2023-01-20T21:01:43.462Z,33.12
2023-01-20T21:04:11.537Z,33.24
2023-01-20T21:06:38.236Z,33.22
2023-01-20T21:09:04.901Z,33.19
2023-01-20T21:11:38.387Z,33.27
2023-01-20T21:14:07.311Z,32.98
2023-01-20T21:16:34.654Z,33.16
2023-01-20T21:19:05.118Z,33.24
2023-01-20T21:21:32.007Z,33.29
2023-01-20T21:23:59.465Z,33.30
2023-01-20T21:26:30.020Z,33.45
2023-01-20T21:29:00.259Z,33.66
2023-01-20T21:31:27.059Z,33.72
2023-01-20T21:33:56.410Z,33.54
2023-01-20T21:36:23.348Z,33.74
2023-01-20T21:38:53.385Z,33.59
2023-01-20T21:41:20.741Z,33.65
2023-01-20T21:44:06.945Z,33.66
2023-01-20T21:46:39.917Z,33.49
2023-01-20T21:49:26.787Z,33.96
2023-01-20T21:52:13.551Z,34.20
2023-01-20T21:54:41.337Z,34.12
2023-01-20T21:57:08.222Z,34.29
2023-01-20T21:59:35.071Z,35.04
2023-01-20T22:02:02.034Z,35.29
2023-01-20T22:04:28.848Z,35.74
2023-01-20T22:06:55.416Z,36.55
2023-01-20T22:09:22.243Z,36.65
2023-01-20T22:11:50.032Z,37.04
2023-01-20T22:14:16.625Z,37.51
2023-01-20T22:16:43.285Z,37.99
2023-01-20T22:19:13.477Z,38.15
2023-01-20T22:21:40.409Z,38.46
2023-01-20T22:24:07.602Z,38.63
2023-01-20T22:26:34.299Z,38.85
2023-01-20T22:29:00.919Z,38.89
2023-01-20T22:31:28.669Z,39.16
2023-01-20T22:33:57.320Z,38.16
2023-01-20T22:36:24.704Z,36.86
2023-01-20T22:38:52.916Z,36.01
2023-01-20T22:41:20.504Z,35.28
2023-01-20T22:43:48.127Z,35.15
2023-01-20T22:46:17.352Z,34.51
2023-01-20T22:48:44.556Z,34.31
2023-01-20T22:51:13.946Z,34.11
2023-01-20T22:53:41.155Z,34.09
2023-01-20T22:56:12.564Z,33.69
2023-01-20T22:58:39.685Z,33.82
2023-01-20T23:01:13.573Z,33.87
2023-01-20T23:03:40.828Z,33.56
2023-01-20T23:06:07.723Z,33.61
2023-01-20T23:08:34.508Z,33.41
2023-01-20T23:11:05.111Z,33.69
2023-01-20T23:13:33.220Z,33.44
2023-01-20T23:15:59.779Z,33.19
2023-01-20T23:18:26.568Z,33.30
2023-01-20T23:20:54.215Z,33.40
2023-01-20T23:23:21.537Z,33.22
2023-01-20T23:25:48.376Z,33.14
2023-01-20T23:28:15.642Z,33.14
2023-01-20T23:30:43.050Z,32.99
2023-01-20T23:33:12.451Z,33.21
2023-01-20T23:35:39.140Z,33.23
2023-01-20T23:38:07.654Z,32.90
2023-01-20T23:40:35.218Z,33.03
2023-01-20T23:43:02.039Z,33.15
2023-01-20T23:45:28.788Z,33.13
2023-01-20T23:47:55.884Z,33.18
2023-01-20T23:50:22.600Z,32.87
2023-01-20T23:52:49.281Z,32.88
2023-01-20T23:55:15.965Z,32.72
2023-01-20T23:57:42.666Z,32.86
